Time;durP1;ratioP1;P1;durP2;ratioP2;P2;SDS_P1;SDS_P2;PMS_P1;PMS_P2;Temp;Humidity;BMP_temperature;BMP_pressure;BME280_temperature;BME280_humidity;BME280_pressure;Samples;Min_cycle;Max_cycle;Signal;HPM_P1;HPM_P2
2023/06/03 00:01:59;;;;;;;4.43;2.80;;;5.80;99.90;;;;;;4913065;29;20048;-79
2023/06/03 00:04:28;;;;;;;16.63;3.47;;;5.80;99.90;;;;;;4897186;29;20543;-79
2023/06/03 00:06:55;;;;;;;7.50;3.20;;;5.80;99.90;;;;;;4898244;29;20163;-79
2023/06/03 00:09:23;;;;;;;9.00;4.05;;;5.80;99.90;;;;;;4909834;29;20449;-77
2023/06/03 00:11:51;;;;;;;13.07;4.05;;;5.70;99.90;;;;;;4881429;29;20052;-76
2023/06/03 00:14:19;;;;;;;10.07;3.72;;;5.70;99.90;;;;;;4929643;29;20048;-76
2023/06/03 00:16:50;;;;;;;6.10;3.10;;;5.70;99.90;;;;;;4929480;29;20512;-76
2023/06/03 00:19:20;;;;;;;14.63;4.22;;;5.70;99.90;;;;;;4896195;29;20062;-77
2023/06/03 00:21:49;;;;;;;13.85;4.53;;;5.70;99.90;;;;;;4914223;29;20055;-79
2023/06/03 00:24:19;;;;;;;13.57;4.20;;;5.60;99.90;;;;;;4915033;29;20066;-78
2023/06/03 00:26:47;;;;;;;12.65;3.95;;;5.60;99.90;;;;;;4911366;29;20044;-78
2023/06/03 00:29:17;;;;;;;16.13;3.40;;;5.60;99.90;;;;;;4895807;29;20040;-76
2023/06/03 00:31:46;;;;;;;16.27;4.13;;;5.60;99.90;;;;;;4909967;29;20120;-76
2023/06/03 00:34:14;;;;;;;11.90;3.88;;;5.60;99.90;;;;;;4897946;29;20052;-77
2023/06/03 00:36:43;;;;;;;15.48;4.63;;;5.60;99.90;;;;;;4909435;29;20525;-76
2023/06/03 00:39:14;;;;;;;9.02;3.90;;;5.50;99.90;;;;;;4913624;29;20092;-77
2023/06/03 00:41:41;;;;;;;11.13;4.03;;;5.50;99.90;;;;;;4914542;29;20124;-78
2023/06/03 00:44:09;;;;;;;12.50;4.10;;;5.50;99.90;;;;;;4913187;29;20056;-77
2023/06/03 00:46:36;;;;;;;14.52;4.40;;;5.40;99.90;;;;;;4909531;29;20538;-76
2023/06/03 00:49:05;;;;;;;19.80;4.93;;;5.40;99.90;;;;;;4913368;29;20052;-76
2023/06/03 00:51:35;;;;;;;13.15;4.78;;;5.40;99.90;;;;;;4914605;29;20521;-76
2023/06/03 00:54:04;;;;;;;10.25;4.20;;;5.30;99.90;;;;;;4912417;29;20056;-76
2023/06/03 00:56:37;;;;;;;8.45;3.97;;;5.30;99.90;;;;;;4913304;29;20052;-77
2023/06/03 00:59:05;;;;;;;12.60;4.63;;;5.30;99.90;;;;;;4899102;29;20043;-78
2023/06/03 01:01:35;;;;;;;14.02;4.13;;;5.30;99.90;;;;;;4917909;29;20052;-77
2023/06/03 01:04:05;;;;;;;17.30;3.83;;;5.20;99.90;;;;;;4920852;29;20406;-77
2023/06/03 01:06:45;;;;;;;9.45;4.00;;;5.20;99.90;;;;;;4886553;29;20052;-78
2023/06/03 01:09:22;;;;;;;11.38;4.30;;;5.20;99.90;;;;;;4916367;29;20059;-78
2023/06/03 01:12:00;;;;;;;12.32;4.68;;;5.20;99.90;;;;;;4900616;29;20056;-78
2023/06/03 01:14:38;;;;;;;10.93;4.57;;;5.20;99.90;;;;;;4889253;29;20052;-79
2023/06/03 01:17:09;;;;;;;10.13;3.95;;;5.20;99.90;;;;;;4913714;29;20059;-79
2023/06/03 01:19:48;;;;;;;7.13;4.22;;;5.20;99.90;;;;;;4916330;29;20469;-79
2023/06/03 01:22:17;;;;;;;8.88;3.75;;;5.20;99.90;;;;;;4890276;29;20052;-79
2023/06/03 01:24:48;;;;;;;9.05;3.60;;;5.20;99.90;;;;;;4903003;29;20044;-79
2023/06/03 01:27:15;;;;;;;13.60;4.50;;;5.30;99.90;;;;;;4916429;29;20548;-79
2023/06/03 01:29:44;;;;;;;11.18;4.38;;;5.20;99.90;;;;;;4916350;29;20066;-79
2023/06/03 01:32:15;;;;;;;8.98;3.83;;;5.20;99.90;;;;;;4884018;29;20058;-79
2023/06/03 01:34:47;;;;;;;13.77;3.70;;;5.20;99.90;;;;;;4925997;29;20150;-80
2023/06/03 01:37:15;;;;;;;14.77;4.90;;;5.20;99.90;;;;;;4916123;29;20051;-79
2023/06/03 01:39:43;;;;;;;13.75;4.65;;;5.20;99.90;;;;;;4913399;29;20481;-80
2023/06/03 01:42:16;;;;;;;10.18;4.63;;;5.20;99.90;;;;;;4890879;29;20433;-80
2023/06/03 01:44:44;;;;;;;15.30;4.18;;;5.20;99.90;;;;;;4911744;29;20509;-79
2023/06/03 01:47:12;;;;;;;13.88;4.88;;;5.20;99.90;;;;;;4900175;29;20048;-80
2023/06/03 01:49:40;;;;;;;11.68;5.57;;;5.20;99.90;;;;;;4915073;29;20048;-80
2023/06/03 01:52:07;;;;;;;11.32;4.32;;;5.20;99.90;;;;;;4904054;29;20521;-80
2023/06/03 01:54:36;;;;;;;11.50;4.30;;;5.20;99.90;;;;;;4916043;29;20052;-79
2023/06/03 01:57:05;;;;;;;11.35;4.28;;;5.20;99.90;;;;;;4915603;29;20052;-79
2023/06/03 01:59:35;;;;;;;8.30;4.63;;;5.20;99.90;;;;;;4918142;29;20088;-79
2023/06/03 02:02:02;;;;;;;8.75;4.35;;;5.20;99.90;;;;;;4910134;29;20103;-79
2023/06/03 02:04:31;;;;;;;17.35;4.38;;;5.20;99.90;;;;;;4916757;29;20064;-79
2023/06/03 02:07:01;;;;;;;14.52;4.82;;;5.20;99.90;;;;;;4912589;29;20091;-79
2023/06/03 02:09:31;;;;;;;10.50;4.30;;;5.20;99.90;;;;;;4895806;29;20052;-79
2023/06/03 02:12:00;;;;;;;19.30;6.53;;;5.30;99.90;;;;;;4899861;29;20574;-79
2023/06/03 02:14:33;;;;;;;22.15;8.13;;;5.40;99.90;;;;;;4917034;29;20059;-80
2023/06/03 02:17:01;;;;;;;17.90;7.10;;;5.40;99.90;;;;;;4904367;29;20052;-79
2023/06/03 02:19:30;;;;;;;26.40;9.95;;;5.50;99.90;;;;;;4904699;29;20047;-79
2023/06/03 02:21:57;;;;;;;24.77;9.65;;;5.60;99.90;;;;;;4915774;29;20048;-79
2023/06/03 02:24:31;;;;;;;17.80;8.60;;;5.70;99.90;;;;;;4916473;29;20055;-79
2023/06/03 02:27:02;;;;;;;13.80;8.52;;;5.80;99.90;;;;;;4896951;29;20051;-79
2023/06/03 02:29:32;;;;;;;14.48;9.15;;;5.80;99.90;;;;;;4915218;29;20147;-79
2023/06/03 02:32:02;;;;;;;18.05;8.70;;;5.90;99.90;;;;;;4915832;29;20052;-79
2023/06/03 02:34:29;;;;;;;20.48;11.75;;;5.90;99.90;;;;;;4896584;29;20056;-79
2023/06/03 02:36:57;;;;;;;19.63;11.25;;;6.00;99.90;;;;;;4883576;29;20110;-79
2023/06/03 02:39:26;;;;;;;21.90;9.85;;;6.00;99.90;;;;;;4915224;29;20143;-79
2023/06/03 02:41:53;;;;;;;12.65;8.40;;;6.10;99.90;;;;;;4914753;29;20052;-79
2023/06/03 02:44:22;;;;;;;15.95;9.73;;;6.10;99.90;;;;;;4887618;29;20087;-79
2023/06/03 02:46:51;;;;;;;18.85;10.40;;;6.10;99.90;;;;;;4886941;29;20047;-79
2023/06/03 02:49:23;;;;;;;19.42;10.13;;;6.20;99.90;;;;;;4880079;29;20535;-79
2023/06/03 02:51:50;;;;;;;17.08;9.50;;;6.30;99.90;;;;;;4879730;29;20056;-79
2023/06/03 02:54:18;;;;;;;13.82;8.50;;;6.30;99.90;;;;;;4873872;29;20047;-79
2023/06/03 02:56:46;;;;;;;16.05;8.65;;;6.30;99.90;;;;;;4897873;29;20071;-79
2023/06/03 02:59:21;;;;;;;18.58;9.38;;;6.30;99.90;;;;;;4898524;29;20059;-78
2023/06/03 03:01:49;;;;;;;21.55;8.40;;;6.40;99.90;;;;;;4881774;29;20059;-78
2023/06/03 03:04:16;;;;;;;18.25;9.50;;;6.40;99.90;;;;;;4914020;29;20056;-79
2023/06/03 03:06:45;;;;;;;16.60;8.73;;;6.40;99.90;;;;;;4914201;29;20058;-80
2023/06/03 03:09:12;;;;;;;14.43;8.32;;;6.50;99.90;;;;;;4914769;29;20075;-79
2023/06/03 03:11:45;;;;;;;15.27;8.82;;;6.40;99.90;;;;;;4919409;29;20048;-79
2023/06/03 03:14:13;;;;;;;13.80;8.20;;;6.50;99.90;;;;;;4890877;29;20064;-79
2023/06/03 03:16:41;;;;;;;21.52;9.07;;;6.50;99.90;;;;;;4930250;29;20434;-79
2023/06/03 03:19:10;;;;;;;16.67;8.88;;;6.50;99.90;;;;;;4898258;29;20064;-79
2023/06/03 03:21:39;;;;;;;11.60;7.68;;;6.50;99.90;;;;;;4912119;29;20052;-78
2023/06/03 03:24:17;;;;;;;15.98;8.23;;;6.60;99.90;;;;;;4880126;29;20067;-79
2023/06/03 03:26:50;;;;;;;15.90;7.93;;;6.60;99.90;;;;;;4880194;29;20116;-79
2023/06/03 03:29:23;;;;;;;14.45;8.10;;;6.70;99.90;;;;;;4863287;29;20063;-79
2023/06/03 03:31:54;;;;;;;20.88;9.13;;;6.80;99.90;;;;;;4900438;29;20567;-79
2023/06/03 03:34:22;;;;;;;15.80;7.22;;;6.80;99.90;;;;;;4914034;29;20059;-80
2023/06/03 03:36:52;;;;;;;13.52;7.15;;;6.90;99.90;;;;;;4913269;29;20434;-79
2023/06/03 03:39:22;;;;;;;11.18;7.35;;;6.90;99.90;;;;;;4908728;29;20448;-79
2023/06/03 03:41:55;;;;;;;14.02;8.13;;;7.00;99.90;;;;;;4886969;29;20063;-77
2023/06/03 03:44:23;;;;;;;13.15;7.15;;;7.00;99.90;;;;;;4890029;29;20120;-76
2023/06/03 03:47:00;;;;;;;12.70;5.90;;;7.10;99.90;;;;;;4914918;29;20055;-77
2023/06/03 03:49:31;;;;;;;9.00;5.03;;;7.20;99.90;;;;;;4901297;29;20044;-79
2023/06/03 03:52:06;;;;;;;3.70;3.00;;;7.30;99.90;;;;;;4913578;29;20051;-79
2023/06/03 03:54:37;;;;;;;4.97;3.60;;;7.40;99.90;;;;;;4913760;29;20083;-79
2023/06/03 03:57:19;;;;;;;3.83;2.83;;;7.40;99.90;;;;;;4902152;29;20334;-80
2023/06/03 03:59:54;;;;;;;3.55;2.38;;;7.50;99.90;;;;;;4909129;29;20661;-79
2023/06/03 04:02:23;;;;;;;4.82;2.10;;;7.50;99.90;;;;;;4899285;29;20056;-79
2023/06/03 04:04:51;;;;;;;3.15;1.92;;;7.60;99.90;;;;;;4894619;29;20063;-79
2023/06/03 04:07:20;;;;;;;3.08;1.10;;;7.70;99.90;;;;;;4891692;29;20040;-78
2023/06/03 04:09:51;;;;;;;4.15;1.35;;;7.70;99.90;;;;;;4914610;29;20492;-78
2023/06/03 04:12:36;;;;;;;2.65;1.00;;;7.80;99.90;;;;;;4913817;29;20120;-77
2023/06/03 04:15:07;;;;;;;4.68;1.33;;;7.90;99.90;;;;;;4912091;29;20042;-78
2023/06/03 04:17:38;;;;;;;3.47;1.30;;;7.90;99.90;;;;;;4894571;29;20099;-78
2023/06/03 04:20:10;;;;;;;1.20;1.08;;;8.00;99.90;;;;;;4915144;29;20500;-79
2023/06/03 04:22:38;;;;;;;3.57;0.80;;;8.00;99.90;;;;;;4897979;29;20048;-78
2023/06/03 04:25:08;;;;;;;1.30;0.98;;;8.00;99.90;;;;;;4891641;29;20048;-77
2023/06/03 04:27:56;;;;;;;2.47;0.70;;;8.10;99.90;;;;;;4897676;29;20052;-78
2023/06/03 04:30:24;;;;;;;1.23;0.80;;;8.20;99.90;;;;;;4882191;29;20068;-78
2023/06/03 04:32:52;;;;;;;2.13;0.80;;;8.30;99.90;;;;;;4901445;29;20056;-79
2023/06/03 04:35:24;;;;;;;1.20;1.10;;;8.40;99.90;;;;;;4904381;29;20044;-79
2023/06/03 04:37:55;;;;;;;1.77;0.90;;;8.50;99.90;;;;;;4899281;29;20147;-79
2023/06/03 04:40:37;;;;;;;1.38;0.98;;;8.60;99.90;;;;;;4898091;29;20088;-79
2023/06/03 04:43:05;;;;;;;3.03;1.35;;;8.60;99.90;;;;;;4898005;29;20111;-82
2023/06/03 04:45:37;;;;;;;1.80;0.95;;;8.70;99.90;;;;;;4882189;29;20057;-82
2023/06/03 04:48:08;;;;;;;6.25;1.15;;;8.80;99.90;;;;;;4897954;29;20060;-81
2023/06/03 04:50:37;;;;;;;1.27;0.95;;;8.80;99.90;;;;;;4897833;29;20147;-80
2023/06/03 04:53:12;;;;;;;2.30;1.23;;;8.80;99.90;;;;;;4899484;29;20048;-81
2023/06/03 04:55:46;;;;;;;2.45;1.15;;;8.90;99.90;;;;;;4900887;29;20509;-82
2023/06/03 04:58:22;;;;;;;0.70;0.70;;;9.00;99.90;;;;;;4916772;29;20127;-81
2023/06/03 05:00:55;;;;;;;2.30;1.13;;;9.00;99.90;;;;;;4911946;29;20593;-81
2023/06/03 05:03:23;;;;;;;1.80;1.00;;;9.00;99.90;;;;;;4905950;29;20117;-80
2023/06/03 05:05:52;;;;;;;1.75;0.90;;;9.10;99.90;;;;;;4890827;29;20466;-80
2023/06/03 05:08:26;;;;;;;3.10;0.90;;;9.10;99.90;;;;;;4894617;29;20066;-78
2023/06/03 05:10:57;;;;;;;3.38;1.10;;;9.20;99.90;;;;;;4902777;29;20429;-79
2023/06/03 05:13:25;;;;;;;2.78;0.80;;;9.30;99.90;;;;;;4917735;29;20059;-81
2023/06/03 05:15:53;;;;;;;1.35;1.10;;;9.40;99.90;;;;;;4931830;29;20112;-79
2023/06/03 05:18:22;;;;;;;3.50;1.00;;;9.50;99.90;;;;;;4916134;29;20115;-80
2023/06/03 05:20:52;;;;;;;3.08;1.30;;;9.70;99.90;;;;;;4907013;29;20056;-80
2023/06/03 05:23:19;;;;;;;1.85;1.00;;;9.80;99.90;;;;;;4916118;29;20590;-82
2023/06/03 05:25:48;;;;;;;1.60;1.50;;;10.00;99.90;;;;;;4900156;29;20154;-80
2023/06/03 05:28:17;;;;;;;5.20;0.80;;;10.20;99.90;;;;;;4911100;29;20044;-80
2023/06/03 05:30:46;;;;;;;3.75;1.05;;;10.50;99.90;;;;;;4915966;29;20044;-81
2023/06/03 05:33:25;;;;;;;1.88;1.20;;;10.70;99.90;;;;;;4900262;29;20165;-81
2023/06/03 05:35:55;;;;;;;1.80;1.00;;;11.00;99.90;;;;;;4900107;29;20155;-80
2023/06/03 05:38:24;;;;;;;1.75;1.08;;;11.40;99.90;;;;;;4914942;29;20497;-79
2023/06/03 05:40:52;;;;;;;1.85;0.93;;;12.00;99.90;;;;;;4900204;29;20088;-79
2023/06/03 05:43:26;;;;;;;1.33;1.15;;;12.60;99.90;;;;;;4907362;29;20057;-79
2023/06/03 05:45:58;;;;;;;1.92;1.58;;;13.10;99.90;;;;;;4882663;29;20063;-79
2023/06/03 05:48:26;;;;;;;2.97;1.00;;;13.70;99.90;;;;;;4899708;29;20147;-79
2023/06/03 05:50:57;;;;;;;2.53;1.20;;;14.20;99.90;;;;;;4899636;29;20056;-80
2023/06/03 05:53:29;;;;;;;3.20;1.10;;;14.60;99.60;;;;;;4883498;29;20149;-78
2023/06/03 05:56:02;;;;;;;1.17;1.08;;;14.90;96.70;;;;;;4897591;29;20532;-79
2023/06/03 05:58:32;;;;;;;12.63;2.50;;;15.30;94.30;;;;;;4901322;29;20076;-79
2023/06/03 06:01:00;;;;;;;4.43;1.15;;;15.80;92.20;;;;;;4887800;29;20152;-81
2023/06/03 06:03:28;;;;;;;1.60;0.95;;;16.30;90.00;;;;;;4904898;29;20052;-80
2023/06/03 06:05:58;;;;;;;3.15;1.58;;;16.70;85.10;;;;;;4895038;29;20059;-81
2023/06/03 06:08:26;;;;;;;3.40;1.80;;;17.10;82.20;;;;;;4877568;29;20086;-79
2023/06/03 06:10:57;;;;;;;1.80;0.77;;;17.50;77.70;;;;;;4899482;29;20131;-82
2023/06/03 06:13:26;;;;;;;0.82;0.82;;;17.80;74.30;;;;;;4892665;29;20064;-81
2023/06/03 06:16:04;;;;;;;4.35;1.00;;;18.30;72.10;;;;;;4890758;29;20472;-81
2023/06/03 06:18:36;;;;;;;1.40;1.00;;;18.50;70.40;;;;;;4881639;29;20051;-80
2023/06/03 06:21:05;;;;;;;7.78;1.17;;;18.00;67.70;;;;;;4898291;29;20135;-80
2023/06/03 06:23:36;;;;;;;41.65;2.72;;;18.00;68.00;;;;;;4896290;29;20048;-80
2023/06/03 06:26:08;;;;;;;5.25;0.85;;;18.30;70.00;;;;;;4879136;29;20465;-81
2023/06/03 06:28:50;;;;;;;2.80;0.90;;;18.60;67.60;;;;;;4875167;29;20044;-80
2023/06/03 06:31:48;;;;;;;1.83;0.90;;;18.00;65.40;;;;;;4890510;29;20052;-79
2023/06/03 06:34:21;;;;;;;1.80;1.10;;;17.70;67.00;;;;;;4887905;29;20793;-80
2023/06/03 06:36:52;;;;;;;1.88;0.80;;;18.10;67.30;;;;;;4908049;29;20528;-82
2023/06/03 06:39:49;;;;;;;1.20;1.05;;;18.70;65.20;;;;;;4886629;29;20048;-79
2023/06/03 06:42:32;;;;;;;1.33;0.90;;;19.20;63.00;;;;;;4894108;29;20059;-81
2023/06/03 06:45:18;;;;;;;2.15;0.82;;;18.50;62.80;;;;;;4889339;29;20053;-83
2023/06/03 06:48:04;;;;;;;4.13;1.17;;;17.70;64.30;;;;;;4881107;29;20053;-84
2023/06/03 06:50:46;;;;;;;2.78;0.90;;;18.40;65.60;;;;;;4875337;29;20476;-81
2023/06/03 06:53:15;;;;;;;0.70;0.68;;;18.90;62.30;;;;;;4905464;29;20148;-80
2023/06/03 06:55:50;;;;;;;4.13;0.80;;;19.40;61.10;;;;;;4905948;29;20139;-80
2023/06/03 06:58:27;;;;;;;2.03;0.80;;;18.90;59.90;;;;;;4908936;29;20197;-80
2023/06/03 07:01:00;;;;;;;3.00;0.75;;;18.00;61.10;;;;;;4909190;29;20529;-82
2023/06/03 07:03:30;;;;;;;2.63;0.77;;;17.20;63.70;;;;;;4904510;29;20417;-82
2023/06/03 07:05:58;;;;;;;0.73;0.52;;;16.60;64.40;;;;;;4888820;29;20059;-82
2023/06/03 07:08:28;;;;;;;2.90;0.80;;;16.20;66.70;;;;;;4902387;29;20124;-78
2023/06/03 07:11:01;;;;;;;1.85;0.73;;;15.90;68.40;;;;;;4911221;29;20056;-83
2023/06/03 07:13:31;;;;;;;1.17;0.85;;;15.80;67.90;;;;;;4897695;29;20107;-80
2023/06/03 07:16:00;;;;;;;0.90;0.88;;;16.30;68.00;;;;;;4894167;29;20526;-82
2023/06/03 07:18:30;;;;;;;1.83;0.65;;;16.30;66.50;;;;;;4880065;29;20044;-84
2023/06/03 07:21:07;;;;;;;3.10;0.93;;;15.90;67.60;;;;;;4896653;29;20048;-81
2023/06/03 07:23:39;;;;;;;3.47;1.20;;;15.40;68.30;;;;;;4892914;29;20088;-79
2023/06/03 07:26:10;;;;;;;;;;;15.20;70.30;;;;;;4906505;29;20048;-82
2023/06/03 07:28:41;;;;;;;4.28;0.93;;;16.40;71.30;;;;;;4907696;29;20013;-83
2023/06/03 07:31:15;;;;;;;2.67;0.90;;;18.10;68.00;;;;;;4892164;29;20049;-84
2023/06/03 07:33:53;;;;;;;3.15;0.60;;;19.70;60.40;;;;;;4897739;29;20059;-86
2023/06/03 07:36:28;;;;;;;0.80;0.60;;;20.90;58.80;;;;;;4896670;29;20130;-85
2023/06/03 07:39:09;;;;;;;1.13;0.70;;;20.70;56.20;;;;;;4879405;29;20545;-85
2023/06/03 07:41:51;;;;;;;3.05;0.57;;;19.60;56.80;;;;;;4888598;29;20497;-84
2023/06/03 07:44:46;;;;;;;0.75;0.63;;;18.50;57.70;;;;;;4886814;29;20433;-84
2023/06/03 07:47:15;;;;;;;2.53;0.90;;;;;;;;;;4907080;29;20047;-82
2023/06/03 07:49:53;;;;;;;2.42;0.90;;;16.70;60.90;;;;;;4904477;29;20071;-80
2023/06/03 07:52:25;;;;;;;4.07;0.70;;;16.00;63.40;;;;;;4906915;29;20131;-81
2023/06/03 07:54:52;;;;;;;1.75;0.60;;;15.60;65.40;;;;;;4907516;29;20398;-82
2023/06/03 07:57:20;;;;;;;2.90;1.30;;;15.30;63.30;;;;;;4906561;29;20467;-83
2023/06/03 07:59:57;;;;;;;3.95;2.03;;;15.00;65.40;;;;;;4890687;29;20057;-80
2023/06/03 08:02:25;;;;;;;1.90;0.90;;;14.80;68.50;;;;;;4888836;29;20083;-80
2023/06/03 08:05:00;;;;;;;1.77;0.77;;;14.90;70.10;;;;;;4907919;29;20567;-80
2023/06/03 08:07:27;;;;;;;2.38;0.73;;;15.00;68.90;;;;;;4906982;29;20048;-83
2023/06/03 08:09:58;;;;;;;1.05;0.63;;;15.10;66.70;;;;;;4908933;29;20060;-81
2023/06/03 08:12:31;;;;;;;2.03;0.52;;;15.80;64.40;;;;;;4904637;29;20084;-81
2023/06/03 08:14:59;;;;;;;9.88;0.93;;;17.50;61.40;;;;;;4918621;29;20059;-84
2023/06/03 08:17:40;;;;;;;1.60;0.80;;;19.50;56.70;;;;;;4882845;29;20044;-86
2023/06/03 08:20:12;;;;;;;1.17;0.55;;;21.20;52.20;;;;;;4908596;29;20064;-78
2023/06/03 08:22:44;;;;;;;2.77;0.60;;;21.50;51.30;;;;;;4910503;29;20048;-79
2023/06/03 08:25:13;;;;;;;0.75;0.65;;;20.70;51.80;;;;;;4892826;29;20055;-79
2023/06/03 08:27:41;;;;;;;3.53;0.60;;;19.40;51.40;;;;;;4907694;29;20123;-77
2023/06/03 08:30:12;;;;;;;5.88;1.33;;;18.40;53.40;;;;;;4898479;29;20505;-82
2023/06/03 08:32:41;;;;;;;3.78;0.90;;;17.50;56.10;;;;;;4898653;29;20044;-83
2023/06/03 08:35:12;;;;;;;2.20;0.98;;;16.70;61.10;;;;;;4907235;29;20047;-81
2023/06/03 08:37:41;;;;;;;2.78;1.00;;;16.00;65.40;;;;;;4891553;29;20084;-82
2023/06/03 08:40:11;;;;;;;1.35;1.00;;;15.40;68.40;;;;;;4915537;29;20048;-85
2023/06/03 08:42:43;;;;;;;4.20;1.20;;;15.00;69.10;;;;;;4894120;29;20059;-84
2023/06/03 08:45:16;;;;;;;1.40;0.75;;;15.00;70.40;;;;;;4910736;29;20076;-81
2023/06/03 08:48:07;;;;;;;2.50;0.80;;;16.30;70.90;;;;;;4917775;29;20052;-85
2023/06/03 08:50:37;;;;;;;2.80;0.65;;;17.20;65.00;;;;;;4914376;29;20080;-86
2023/06/03 08:53:08;;;;;;;2.72;1.10;;;19.00;64.10;;;;;;4913761;29;20056;-84
2023/06/03 08:55:38;;;;;;;4.35;0.85;;;21.20;59.90;;;;;;4910884;29;20552;-83
2023/06/03 08:58:15;;;;;;;5.63;1.10;;;22.00;55.20;;;;;;4902189;29;20792;-79
2023/06/03 09:00:47;;;;;;;1.17;0.60;;;20.50;55.60;;;;;;4917617;29;20055;-78
2023/06/03 09:03:18;;;;;;;4.47;0.80;;;18.60;57.90;;;;;;4895933;29;20048;-78
2023/06/03 09:05:49;;;;;;;4.47;1.05;;;17.30;60.50;;;;;;4908530;29;20083;-78
2023/06/03 09:08:18;;;;;;;3.40;1.50;;;16.50;61.70;;;;;;4906653;29;20049;-79
2023/06/03 09:10:47;;;;;;;3.53;0.90;;;16.00;62.50;;;;;;4908860;29;20067;-77
2023/06/03 09:13:16;;;;;;;2.85;0.90;;;17.50;65.10;;;;;;4881577;29;20128;-78
2023/06/03 09:15:44;;;;;;;1.45;0.75;;;19.70;60.80;;;;;;4880288;29;20067;-76
2023/06/03 09:18:14;;;;;;;2.95;0.70;;;21.60;57.70;;;;;;4903453;29;20064;-78
2023/06/03 09:20:42;;;;;;;3.03;0.60;;;22.90;54.20;;;;;;4917264;29;20095;-77
2023/06/03 09:23:13;;;;;;;1.23;0.70;;;24.00;53.00;;;;;;4916565;29;20056;-79
2023/06/03 09:25:43;;;;;;;2.53;0.75;;;24.90;50.30;;;;;;4884141;29;20147;-78
2023/06/03 09:28:11;;;;;;;1.05;0.90;;;24.20;49.50;;;;;;4877671;29;20057;-77
2023/06/03 09:30:39;;;;;;;2.63;0.90;;;22.60;50.90;;;;;;4896632;29;20109;-77
2023/06/03 09:33:06;;;;;;;1.10;1.00;;;21.20;52.60;;;;;;4880748;29;20060;-77
2023/06/03 09:35:33;;;;;;;2.47;0.70;;;19.90;54.50;;;;;;4913153;29;20044;-78
2023/06/03 09:38:04;;;;;;;3.22;0.80;;;18.90;56.70;;;;;;4916100;29;20060;-77
2023/06/03 09:40:35;;;;;;;2.55;0.70;;;18.00;58.50;;;;;;4897929;29;20060;-76
2023/06/03 09:43:12;;;;;;;3.28;0.95;;;17.20;60.00;;;;;;4909267;29;20048;-78
2023/06/03 09:45:40;;;;;;;4.63;0.73;;;16.50;62.30;;;;;;4892072;29;20052;-76
2023/06/03 09:48:07;;;;;;;10.05;0.98;;;15.90;64.90;;;;;;4909283;29;20044;-76
2023/06/03 09:50:50;;;;;;;4.65;1.98;;;15.40;70.20;;;;;;4909843;29;20296;-78
2023/06/03 09:53:21;;;;;;;15.73;1.17;;;14.90;74.70;;;;;;4907005;29;20104;-82
2023/06/03 09:55:53;;;;;;;3.78;1.15;;;14.30;78.90;;;;;;4896696;29;20048;-83
2023/06/03 09:58:24;;;;;;;7.78;1.35;;;13.90;80.70;;;;;;4911225;29;20068;-78
2023/06/03 10:00:55;;;;;;;0.65;0.60;;;13.60;82.20;;;;;;4909377;29;20583;-79
2023/06/03 10:03:25;;;;;;;3.42;1.25;;;13.60;87.70;;;;;;4896452;29;20063;-80
2023/06/03 10:05:52;;;;;;;4.10;1.98;;;13.80;90.70;;;;;;4898738;29;20107;-78
2023/06/03 10:08:29;;;;;;;4.25;0.90;;;14.40;91.50;;;;;;4899048;29;20056;-77
2023/06/03 10:11:01;;;;;;;0.60;0.60;;;15.10;90.60;;;;;;4913248;29;20053;-78
2023/06/03 10:13:29;;;;;;;1.40;0.60;;;15.50;85.10;;;;;;4914136;29;20052;-82
2023/06/03 10:15:58;;;;;;;4.35;1.05;;;15.40;84.70;;;;;;4907955;29;20048;-75
2023/06/03 10:18:39;;;;;;;3.05;1.20;;;15.20;87.50;;;;;;4900648;29;20061;-79
2023/06/03 10:21:09;;;;;;;1.85;1.00;;;14.90;88.20;;;;;;4900055;29;20534;-80
2023/06/03 10:23:39;;;;;;;1.77;0.85;;;14.50;90.60;;;;;;4906531;29;20138;-80
2023/06/03 10:26:09;;;;;;;2.50;0.90;;;14.10;91.00;;;;;;4907613;29;20143;-77
2023/06/03 10:28:37;;;;;;;1.30;0.85;;;13.80;92.20;;;;;;4909705;29;20485;-83
2023/06/03 10:31:07;;;;;;;1.95;1.05;;;13.40;93.60;;;;;;4917011;29;20048;-78
2023/06/03 10:33:36;;;;;;;2.88;0.60;;;13.00;94.70;;;;;;4908834;29;20056;-78
2023/06/03 10:36:04;;;;;;;1.38;0.45;;;12.70;94.90;;;;;;4897993;29;20056;-77
2023/06/03 10:38:33;;;;;;;1.75;0.60;;;12.30;94.00;;;;;;4915242;29;21462;-76
2023/06/03 10:41:01;;;;;;;2.85;0.40;;;12.00;93.00;;;;;;4883052;29;20048;-77
2023/06/03 10:43:36;;;;;;;0.30;0.30;;;11.80;95.00;;;;;;4871188;29;20147;-80
2023/06/03 10:46:05;;;;;;;2.55;0.80;;;11.80;94.80;;;;;;4895877;29;20080;-78
2023/06/03 10:48:37;;;;;;;1.58;0.57;;;11.80;91.40;;;;;;4912140;29;20095;-82
2023/06/03 10:51:32;;;;;;;0.65;0.50;;;11.90;91.60;;;;;;4890470;29;20057;-77
2023/06/03 10:54:23;;;;;;;2.28;0.93;;;11.80;94.40;;;;;;4910320;29;20063;-78
2023/06/03 10:56:59;;;;;;;3.35;1.45;;;11.80;95.40;;;;;;4915498;29;20515;-78
2023/06/03 10:59:43;;;;;;;6.38;1.95;;;11.80;97.90;;;;;;4881235;29;20060;-78
2023/06/03 11:02:13;;;;;;;2.50;1.25;;;11.80;99.90;;;;;;4891580;29;20052;-79
2023/06/03 11:04:41;;;;;;;1.55;0.80;;;11.80;99.90;;;;;;4888777;29;20052;-78
2023/06/03 11:07:45;;;;;;;1.20;0.80;;;11.80;99.90;;;;;;4902686;29;20116;-78
2023/06/03 11:10:40;;;;;;;;;;;12.10;99.90;;;;;;4888176;29;20052;-79
2023/06/03 11:13:10;;;;;;;3.17;0.55;;;12.30;99.90;;;;;;4908576;29;20296;-78
2023/06/03 11:16:03;;;;;;;2.30;0.68;;;12.50;99.90;;;;;;4897812;29;20040;-79
2023/06/03 11:18:31;;;;;;;1.25;0.70;;;12.50;99.90;;;;;;4911359;29;20055;-80
2023/06/03 11:20:59;;;;;;;2.55;0.85;;;12.40;99.90;;;;;;4908080;29;20044;-78
2023/06/03 11:23:44;;;;;;;2.15;1.00;;;12.40;99.90;;;;;;4911556;29;20052;-78
2023/06/03 11:26:33;;;;;;;2.10;0.90;;;12.50;99.90;;;;;;4891019;29;20052;-78
2023/06/03 11:29:03;;;;;;;0.93;0.90;;;12.70;99.90;;;;;;4901611;29;20056;-79
2023/06/03 11:31:34;;;;;;;1.55;0.70;;;12.90;99.90;;;;;;4913586;29;20079;-78
2023/06/03 11:34:22;;;;;;;1.48;0.60;;;12.90;99.90;;;;;;4880179;29;20509;-80
2023/06/03 11:36:53;;;;;;;1.30;0.70;;;12.70;99.90;;;;;;4911220;29;20139;-80
2023/06/03 11:39:22;;;;;;;1.40;1.15;;;12.50;99.90;;;;;;4888125;29;20129;-78
2023/06/03 11:42:11;;;;;;;2.85;0.90;;;12.20;99.90;;;;;;4905190;29;20135;-79
2023/06/03 11:44:42;;;;;;;1.80;0.80;;;12.00;99.90;;;;;;4873124;29;20749;-79
2023/06/03 11:47:12;;;;;;;2.33;1.05;;;11.80;99.90;;;;;;4880529;29;20628;-79
2023/06/03 11:49:41;;;;;;;1.52;1.13;;;11.60;99.90;;;;;;4911659;29;20056;-80
2023/06/03 11:52:10;;;;;;;2.15;1.38;;;11.50;99.90;;;;;;4909302;29;20087;-79
2023/06/03 11:54:40;;;;;;;3.35;1.13;;;11.40;99.90;;;;;;4913707;29;20048;-79
2023/06/03 11:57:09;;;;;;;1.77;1.13;;;11.40;99.90;;;;;;4914314;29;20056;-79
2023/06/03 11:59:42;;;;;;;1.83;1.23;;;11.60;99.90;;;;;;4878731;29;20083;-77
2023/06/03 12:02:12;;;;;;;1.73;1.00;;;11.90;99.90;;;;;;4896409;29;20107;-79
2023/06/03 12:04:39;;;;;;;1.52;1.00;;;12.30;99.90;;;;;;4908650;29;20049;-82
2023/06/03 12:07:12;;;;;;;4.07;1.45;;;12.60;99.90;;;;;;4900155;29;20059;-80
2023/06/03 12:09:40;;;;;;;3.78;1.83;;;13.50;99.90;;;;;;4880173;29;20152;-80
2023/06/03 12:12:09;;;;;;;3.92;2.22;;;14.80;99.90;;;;;;4908236;29;20505;-79
2023/06/03 12:14:38;;;;;;;3.20;2.65;;;15.70;99.90;;;;;;4904227;29;20056;-80
2023/06/03 12:17:13;;;;;;;6.00;2.67;;;17.30;99.90;;;;;;4905238;29;20044;-80
2023/06/03 12:19:43;;;;;;;4.10;3.50;;;19.10;94.70;;;;;;4908907;29;20107;-80
2023/06/03 12:22:12;;;;;;;4.28;2.63;;;21.20;88.70;;;;;;4907244;29;20107;-79
2023/06/03 12:24:43;;;;;;;1.50;1.40;;;23.10;75.60;;;;;;4911590;29;20116;-79
2023/06/03 12:27:21;;;;;;;1.38;1.08;;;24.80;63.70;;;;;;4912287;29;20044;-79
2023/06/03 12:29:52;;;;;;;5.18;0.70;;;26.10;56.80;;;;;;4894079;29;20600;-80
2023/06/03 12:32:22;;;;;;;2.83;0.80;;;26.50;53.60;;;;;;4914235;29;20147;-80
2023/06/03 12:34:50;;;;;;;10.75;0.73;;;26.20;51.90;;;;;;4908316;29;20060;-80
2023/06/03 12:37:28;;;;;;;6.28;0.65;;;25.90;54.40;;;;;;4911352;29;20146;-78
2023/06/03 12:39:59;;;;;;;3.42;0.80;;;26.80;53.40;;;;;;4910893;29;20064;-79
2023/06/03 12:42:38;;;;;;;2.30;0.60;;;27.70;50.50;;;;;;4903229;29;20059;-79
2023/06/03 12:45:07;;;;;;;2.65;1.52;;;27.10;49.30;;;;;;4913394;29;20108;-79
2023/06/03 12:47:47;;;;;;;3.20;0.93;;;26.00;51.10;;;;;;4911135;29;20139;-80
2023/06/03 12:50:16;;;;;;;4.78;0.70;;;24.40;52.70;;;;;;4914803;29;20052;-82
2023/06/03 12:52:53;;;;;;;5.18;0.98;;;23.20;54.30;;;;;;4899549;29;20470;-79
2023/06/03 12:55:26;;;;;;;2.17;0.82;;;21.80;57.10;;;;;;4916119;29;20060;-80
2023/06/03 12:57:53;;;;;;;5.47;0.95;;;20.20;59.90;;;;;;4916463;29;20059;-80
2023/06/03 13:00:22;;;;;;;5.55;0.80;;;19.50;61.20;;;;;;4916683;29;20059;-78
2023/06/03 13:02:54;;;;;;;6.03;1.67;;;19.20;64.10;;;;;;4917670;29;20103;-79
2023/06/03 13:05:26;;;;;;;1.92;0.88;;;19.60;64.00;;;;;;4914638;29;20052;-79
2023/06/03 13:07:54;;;;;;;5.38;0.90;;;20.90;60.10;;;;;;4918313;29;20139;-79
2023/06/03 13:10:24;;;;;;;1.83;0.75;;;22.50;56.00;;;;;;4917980;29;20052;-79
2023/06/03 13:12:52;;;;;;;1.33;1.00;;;22.60;56.40;;;;;;4901832;29;20059;-79